• Join FlightAware (Why Join?)
  • Login
  • US Flag 
06:48AM EDT


 

Airport Tracker/Info


-or-


 

Live Flight TrackerFlight Track Log ✈ EJA101 ✈ 27-Jun-2013 ✈ KAPC - KTUS

Flight Track Log - Related Links

Times and Time Zones

All times are in EDT time to prevent confusion due to time zone crossing. See the EJA101 flight status page for this flight to view local times or setup timezone preferences in your user account.

Time Position Orientation Groundspeed Altitude Reporting Facility
EDT Latitude Longitude Course Direction KTS MPH feet Rate Location/Type
07:48PM 38.2069 -122.3061 142° Southeast 151 174 1,700  Level Oakland Center
07:49PM 38.1750 -122.3789 241° Southwest 232 267 4,700 3,420 Climbing Oakland Center
07:50PM 38.0967 -122.3811 181° South 277 319 8,800 3,240 Climbing Oakland Center
07:51PM 38.0233 -122.3358 154° Southeast 318 366 11,400 2,820 Climbing Oakland Center
07:52PM 37.7167 -122.2060 90° East  Level FlightAware Approximate
07:52PM 37.9847 -122.2153 112° Southeast 363 418 14,700  Level Oakland Center
07:53PM 37.6235 -122.1235 142° Southeast  Level FlightAware Approximate
07:53PM 37.9117 -122.1228 135° Southeast 378 435 17,400  Level Oakland Center
07:54PM 37.8258 -122.0372 142° Southeast 389 448 20,300 2,700 Climbing Oakland Center
07:55PM 37.7364 -121.9503 142° Southeast 401 461 23,000 2,640 Climbing Oakland Center
07:56PM 37.6436 -121.8581 142° Southeast 419 482 25,800 2,340 Climbing Oakland Center
07:57PM 37.5478 -121.7656 143° Southeast 432 497 27,900 2,160 Climbing Oakland Center
07:58PM 37.4258 -121.6486 143° Southeast 459 528 30,300 2,340 Climbing Oakland Center
07:59PM 37.3269 -121.5531 142° Southeast 471 542 32,800 2,340 Climbing Oakland Center
08:00PM 37.2231 -121.4517 142° Southeast 474 545 35,100 2,100 Climbing Oakland Center
08:01PM 37.1172 -121.3517 143° Southeast 476 548 37,200 2,280 Climbing Oakland Center
08:02PM 37.0072 -121.2453 142° Southeast 475 547 39,800 1,800 Climbing Oakland Center
08:03PM 36.8861 -121.1308 143° Southeast 476 548 41,000 540 Climbing Oakland Center
08:04PM 36.8006 -121.0203 134° Southeast 505 581 41,000  Level Oakland Center
08:05PM 36.7094 -120.8872 130° Southeast 506 582 41,000  Level Oakland Center
08:06PM 36.5975 -120.7322 132° Southeast 502 578 41,000  Level Oakland Center
08:07PM 36.5039 -120.5969 131° Southeast 512 589 41,000  Level Oakland Center
08:08PM 36.4103 -120.4653 131° Southeast 509 586 41,000 -60 Level Oakland Center
08:09PM 36.3161 -120.3378 132° Southeast 503 579 40,900  Descending Oakland Center
08:10PM 36.2225 -120.2025 131° Southeast 512 589 41,000  Climbing Oakland Center
08:11PM 36.1281 -120.0733 132° Southeast 507 583 40,900  Descending Oakland Center
08:12PM 36.0347 -119.9442 132° Southeast 503 579 41,000  Climbing Oakland Center
08:13PM 35.9406 -119.8153 132° Southeast 503 579 41,000  Level Oakland Center
08:14PM 35.8494 -119.6897 132° Southeast 493 567 41,000  Level Oakland Center
08:15PM 35.7564 -119.5631 132° Southeast 495 570 41,000  Level Oakland Center
08:16PM 35.6439 -119.4114 132° Southeast 496 571 41,000  Level Oakland Center
08:17PM 35.6081 -119.3611 131° Southeast 497 572 41,000 -120 Level Los Angeles Center
08:18PM 35.5156 -119.2350 132° Southeast 497 572 40,900 -60 Descending Los Angeles Center
08:19PM 35.4225 -119.1103 132° Southeast 497 572 40,900  Level Los Angeles Center
08:20PM 35.3294 -118.9850 132° Southeast 496 571 41,000  Climbing Los Angeles Center
08:21PM 35.2192 -118.8364 132° Southeast 492 566 41,000  Level Los Angeles Center
08:22PM 35.1258 -118.7142 133° Southeast 492 566 41,000 -60 Level Los Angeles Center
08:23PM 35.0339 -118.5928 133° Southeast 489 563 40,900  Descending Los Angeles Center
08:24PM 34.9478 -118.4783 133° Southeast 488 562 41,000  Climbing Los Angeles Center
08:25PM 34.8389 -118.3364 133° Southeast 483 556 41,000  Level Los Angeles Center
08:26PM 34.7478 -118.2186 133° Southeast 483 556 41,000  Level Los Angeles Center
08:27PM 34.6592 -118.1006 132° Southeast 480 552 41,000  Level Los Angeles Center
08:28PM 34.6000 -117.9597 117° Southeast 483 556 41,000  Level Los Angeles Center
08:29PM 34.5542 -117.8083 110° East 482 555 41,000  Level Los Angeles Center
08:30PM 34.4997 -117.6300 110° East 482 555 41,000  Level Los Angeles Center
08:31PM 34.4542 -117.4783 110° East 485 558 41,000  Level Los Angeles Center
08:32PM 34.4097 -117.3319 110° East 479 551 41,000  Level Los Angeles Center
08:33PM 34.3678 -117.1869 109° East 477 549 41,000  Level Los Angeles Center
08:34PM 34.3183 -117.0328 111° Southeast 482 555 41,000  Level Los Angeles Center
08:36PM 34.2733 -116.8831 110° East 479 551 41,000  Level Los Angeles Center
08:37PM 34.2181 -116.7047 111° Southeast 478 550 41,000  Level Los Angeles Center
08:38PM 34.1714 -116.5556 111° Southeast 481 554 41,000  Level Los Angeles Center
08:39PM 34.1244 -116.3914 109° East 479 551 41,000  Level Los Angeles Center
08:40PM 34.0761 -116.2458 112° Southeast 471 542 41,000  Level Los Angeles Center
08:41PM 34.0294 -116.0967 111° Southeast 473 544 41,000  Level Los Angeles Center
08:43PM 33.9505 -115.8551 111° Southeast  Level FlightAware Approximate
08:44PM 33.8803 -115.6225 111° Southeast 472 543 41,000  Level Los Angeles Center
08:45PM 33.8492 -115.4689 104° East 473 544 41,000  Level Los Angeles Center
08:46PM 33.8169 -115.3156 104° East 472 543 41,000  Level Los Angeles Center
08:47PM 33.7861 -115.1633 104° East 470 541 41,000  Level Los Angeles Center
08:48PM 33.7542 -115.0083 104° East 476 548 41,000  Level Los Angeles Center
08:49PM 33.7219 -114.8556 104° East 472 543 41,000  Level Los Angeles Center
08:50PM 33.6836 -114.6742 104° East 469 540 41,000  Level Los Angeles Center
08:51PM 33.6522 -114.5239 104° East 465 535 41,000  Level Los Angeles Center
08:52PM 33.6206 -114.3744 104° East 463 533 41,000  Level Los Angeles Center
08:53PM 33.5928 -114.2317 103° East 465 535 41,000  Level Albuquerque Center
08:54PM 33.5592 -114.0828 105° East 464 534 41,000 -60 Level Albuquerque Center
08:55PM 33.5278 -113.9322 104° East 464 534 40,900  Descending Albuquerque Center
08:56PM 33.4744 -113.7944 115° Southeast 460 529 41,000  Climbing Albuquerque Center
08:57PM 33.4019 -113.6322 118° Southeast 461 531 41,000 -420 Level Albuquerque Center
08:58PM 33.3400 -113.4997 119° Southeast 457 526 40,200 -1,140 Descending Albuquerque Center
08:59PM 33.2775 -113.3653 119° Southeast 459 528 38,700 -1,560 Descending Albuquerque Center
09:00PM 33.2144 -113.2292 119° Southeast 462 532 37,100 -900 Descending Albuquerque Center
09:01PM 33.1508 -113.0914 119° Southeast 467 537 36,900 -120 Descending Albuquerque Center
09:02PM 33.0861 -112.9503 119° Southeast 477 549 36,900 -960 Level Albuquerque Center
09:03PM 33.0211 -112.8111 119° Southeast 479 551 35,000 -1,920 Descending Albuquerque Center
09:04PM 32.9572 -112.6728 119° Southeast 476 548 33,000 -2,160 Descending Albuquerque Center
09:05PM 32.8897 -112.5000 115° Southeast 477 549 30,600 -2,100 Descending Albuquerque Center
09:06PM 32.8342 -112.3547 114° Southeast 481 554 28,700 -2,040 Descending Albuquerque Center
09:07PM 32.7853 -112.2275 115° Southeast 466 536 26,500 -1,380 Descending Albuquerque Center
09:09PM 32.7353 -112.1000 115° Southeast 440 506 25,900 -1,500 Descending Albuquerque Center
09:10PM 32.6864 -111.9747 115° Southeast 427 491 23,500 -2,400 Descending Albuquerque Center
09:11PM 32.6333 -111.8347 114° Southeast 396 456 21,100 -1,440 Descending Albuquerque Center
09:11PM 32.6003 -111.7606 118° Southeast 380 437 21,000 -120 Descending Albuquerque Center
09:12PM 32.5633 -111.6667 115° Southeast 341 392 21,000 -420 Level Albuquerque Center
09:13PM 32.5164 -111.5781 122° Southeast 325 374 20,300 -1,560 Descending Albuquerque Center
09:14PM 32.4528 -111.5014 135° Southeast 324 373 17,900 -2,340 Descending Albuquerque Center
09:15PM 32.3833 -111.4292 139° Southeast 328 377 15,600 -2,340 Descending Albuquerque Center
09:16PM 32.3197 -111.3553 136° Southeast 325 374 13,200 -2,460 Descending Albuquerque Center
09:17PM 32.2861 -111.3167 136° Southeast 324 373 11,900 -2,640 Descending Albuquerque Center
09:17PM 32.2547 -111.2844 139° Southeast 321 369 10,600 -1,980 Descending Albuquerque Center
09:18PM 32.2236 -111.2458 134° Southeast 316 364 9,900 -1,620 Descending Albuquerque Center
09:18PM 32.1914 -111.2108 137° Southeast 297 342 9,000 -1,680 Descending Albuquerque Center
09:19PM 32.1675 -111.1786 131° Southeast 295 339 8,200 -660 Descending Albuquerque Center
09:20PM 32.1122 -111.1128 135° Southeast 287 330 8,000 -300 Descending Albuquerque Center
09:21PM 32.0614 -111.0481 133° Southeast 280 322 7,700 -720 Descending Albuquerque Center
09:22PM 32.0275 -110.9822 121° Southeast 254 292 6,600 -1,080 Descending Albuquerque Center
09:23PM 32.0194 -110.9158 98° East 226 260 5,600 -1,200 Descending Albuquerque Center
09:24PM 32.0672 -110.8817 31° Northeast 138 159 3,800 -1,080 Descending Albuquerque Center
09:25PM 32.0894 -110.9083 315° West 114 131 3,100 -720 Descending Albuquerque Center